Latest Weather Observations for Davis*

IDT60801

Issued at 3:02 pm EDT Tuesday 23 December 2014 (issued every 30 minutes, with the page automatically refreshed every 10 minutes)

About weather observations | Map of weather stations | Latest weather observations for ANT | Other Formats
Station Details ID: 300000 Name: DAVIS Lat: -68.57 Lon: 77.97 Height: 18.0 m
Data from the previous 72 hours. | See also: Recent months at Davis*
Date/Time
EDT
Temp
°C
App
Temp
°C
Dew
Point
Rel
Hum
%
Delta-T
°C
Wind Press
QNH
hPa
Press
MSL
hPa
Rain
since 9 am
mm
Dir
 
Spd
km/h
Gust
km/h
Spd
kts
Gust
kts
23/03:00pm 2.9 -8.2 -8.4 43 - NNE 43 61 23 33 987.8 - -
23/02:56pm 2.9 -8.2 -9.0 41 - NNE 43 61 23 33 987.8 - -
23/02:30pm 2.7 -7.7 -9.2 41 - NNE 39 50 21 27 987.7 - -
23/02:00pm 2.5 -8.7 -9.4 41 - NNE 43 59 23 32 987.5 987.7 -
23/01:51pm 2.5 -8.3 -10.0 39 - NNE 41 59 22 32 987.5 - -
23/01:09pm 1.7 -9.2 -10.4 40 - NNE 41 59 22 32 987.4 - -
23/01:00pm 1.6 -9.2 -9.3 44 - NNE 41 54 22 29 987.4 - -
23/12:35pm 0.9 -8.2 -9.1 47 - NNE 32 50 17 27 987.5 - -
23/12:30pm 0.9 -8.1 -8.3 50 - NNE 32 43 17 23 987.4 - -
23/12:00pm 1.3 -7.9 -8.7 47 - NNE 33 44 18 24 987.2 - -
23/11:30am 1.6 -8.1 -9.9 42 - NNE 35 44 19 24 987.1 - -
23/11:19am 1.3 -7.8 -10.2 42 - NNE 32 50 17 27 987.1 - -
23/11:00am 0.7 -8.3 -8.0 52 - NNE 32 43 17 23 987.2 987.4 -
23/10:30am 1.0 -8.1 -9.9 44 - NNE 32 39 17 21 986.9 - -
23/10:00am 0.8 -8.2 -8.9 48 - NNE 32 46 17 25 986.8 - -
23/09:30am 0.4 -6.7 -8.5 51 - NNE 22 30 12 16 986.8 - -
23/09:00am -0.7 -7.1 -6.6 64 - NNE 19 26 10 14 986.6 - -
23/08:30am -0.2 -6.8 -7.2 59 - NNE 20 28 11 15 986.3 - -
23/08:00am -0.7 -7.1 -6.6 64 - NNE 19 24 10 13 986.2 986.4 -
23/07:30am -0.1 -7.5 -6.9 60 - NNE 24 30 13 16 985.9 - -
23/07:00am 0.2 -7.5 -6.8 59 - NNE 26 32 14 17 985.5 - -
23/06:30am 0.7 -6.6 -6.8 57 - NNE 24 32 13 17 985.4 - -
23/06:00am 1.1 -5.8 -6.4 57 - NE 22 26 12 14 985.4 - -
23/05:30am 1.5 -5.8 -6.3 56 - NE 24 33 13 18 985.2 - -
23/05:00am 1.5 -6.2 -6.1 57 - NE 26 33 14 18 984.9 985.0 -
23/04:30am 1.9 -7.8 -5.7 57 - NE 37 44 20 24 984.4 - -
23/04:00am 2.4 -6.5 -5.5 56 - NE 33 43 18 23 984.0 - -
23/03:30am 2.4 -6.2 -4.6 60 - NE 32 41 17 22 983.9 - -
23/03:00am 2.5 -6.3 -4.2 61 - NE 33 43 18 23 983.7 - -
23/02:30am 2.6 -5.2 -3.7 63 - ENE 28 35 15 19 983.8 - -
23/02:00am 3.0 -5.1 -2.9 65 - NE 30 41 16 22 983.8 983.9 -
23/01:30am 3.5 -3.8 -2.7 64 - NNE 26 39 14 21 983.8 - -
23/01:00am 3.5 -4.9 -2.7 64 - NNE 32 41 17 22 983.5 - -
23/12:30am 3.2 -5.2 -2.5 66 - NNE 32 39 17 21 983.4 - -
23/12:00am 3.9 -5.9 -2.7 62 - NNE 39 50 21 27 983.1 - -
 
Date/Time
EDT
Temp
°C
App
Temp
°C
Dew
Point
Rel
Hum
%
Delta-T
°C
Wind Press
QNH
hPa
Press
MSL
hPa
Rain
since 9 am
mm
Dir
 
Spd
km/h
Gust
km/h
Spd
kts
Gust
kts
22/11:30pm 4.7 -5.0 -2.6 59 - NNE 39 50 21 27 982.9 - -
22/11:00pm 4.8 -5.7 -2.5 59 - NNE 43 54 23 29 982.8 982.9 -
22/10:30pm 4.7 -5.0 -2.4 60 - NNE 39 48 21 26 982.9 - -
22/10:00pm 5.0 -4.2 -1.4 63 - NNE 37 44 20 24 982.9 - -
22/09:30pm 5.6 -6.0 -4.0 50 - NE 48 69 26 37 982.9 - -
22/09:00pm 6.6 -5.0 -3.9 47 - NE 48 69 26 37 983.0 - -
22/08:42pm 6.1 -5.6 -4.6 46 - NE 48 70 26 38 982.8 - -
22/08:30pm 6.2 -4.7 -4.5 46 - NE 44 61 24 33 983.1 - -
22/08:00pm 7.0 -5.4 -4.1 45 - NE 52 70 28 38 983.3 983.4 -
22/07:31pm 6.4 -5.7 -5.2 43 - NE 50 69 27 37 983.5 - -
22/07:30pm 6.9 -5.1 -4.2 45 - NE 50 67 27 36 983.4 - -
22/07:10pm 6.4 -5.8 -5.6 42 - NE 50 69 27 37 983.5 - -
22/07:00pm 6.3 -5.9 -5.6 42 - NE 50 67 27 36 983.6 - -
22/06:30pm 7.0 -5.2 -6.3 38 - NE 50 70 27 38 983.7 - -
22/06:08pm 7.0 -5.2 -6.3 38 - ENE 50 69 27 37 983.8 - -
22/06:00pm 7.1 -6.4 -5.9 39 - ENE 57 72 31 39 983.7 - -
22/05:40pm 6.7 -6.4 -6.9 37 - ENE 54 74 29 40 983.2 - -
22/05:30pm 7.1 -5.2 -6.6 37 - ENE 50 65 27 35 983.7 - -
22/05:15pm 6.5 -5.8 -6.8 38 - NE 50 69 27 37 983.7 - -
22/05:00pm 6.5 -5.9 -7.5 36 - ENE 50 65 27 35 983.8 983.9 -
22/04:30pm 6.3 -6.4 -7.6 36 - ENE 52 74 28 40 983.9 - -
22/04:19pm 7.1 -4.7 -6.2 38 - ENE 48 67 26 36 983.8 - -
22/04:00pm 6.4 -6.2 -6.5 39 - NE 52 69 28 37 983.6 - -
22/03:30pm 5.5 -7.2 -7.0 40 - ENE 52 70 28 38 983.9 - -
22/03:00pm 5.0 -7.7 -6.8 42 - ENE 52 72 28 39 983.7 - -
22/02:30pm 5.1 -6.5 -8.0 38 - NE 46 67 25 36 984.0 - -
22/02:29pm 5.4 -6.2 -7.4 39 - NE 46 67 25 36 983.8 - -
22/02:00pm 3.6 -8.2 -6.1 49 - NE 48 63 26 34 984.5 984.6 -
22/01:30pm 2.9 -9.4 -7.0 48 - NE 50 70 27 38 984.8 - -
22/01:00pm 2.9 -8.2 -6.7 49 - NNE 44 65 24 35 985.2 - -
22/12:30pm 1.6 -7.7 -5.5 59 - NNE 35 57 19 31 985.7 - -
22/12:04pm 2.1 -6.8 -5.5 57 - NNE 33 56 18 30 985.5 - -
22/12:00pm 1.0 -7.9 -5.4 62 - NNE 33 46 18 25 985.7 - -
22/11:41am 1.3 -8.1 -6.0 58 - NNE 35 54 19 29 985.9 - -
22/11:30am 1.5 -8.7 -6.5 55 - NE 39 50 21 27 985.7 - -
22/11:00am 0.9 -8.1 -6.4 58 - NNE 33 46 18 25 986.0 986.2 -
22/10:30am 0.2 -9.6 -7.1 58 - NNE 37 46 20 25 986.4 - -
22/10:00am 0.5 -8.0 -6.8 58 - NE 30 41 16 22 986.7 - -
22/09:30am 0.1 -8.4 -6.7 60 - NE 30 41 16 22 987.2 - -
22/09:00am 0.6 -7.4 -6.0 61 - NE 28 37 15 20 987.5 - -
22/08:30am 0.2 -7.0 -5.4 66 - NE 24 28 13 15 987.7 - -
22/08:00am -0.2 -5.9 -4.1 75 - ENE 17 20 9 11 987.9 988.1 -
22/07:30am -0.8 -6.4 -2.8 86 - NE 17 26 9 14 988.2 - -
22/07:00am -0.7 -6.3 -2.6 87 - NE 17 22 9 12 988.4 - -
22/06:30am -0.7 -6.7 -2.7 86 - NE 19 24 10 13 988.5 - -
22/06:00am -0.4 -6.6 -2.8 84 - NE 20 26 11 14 988.6 - -
22/05:30am -0.4 -6.0 -2.8 84 - ENE 17 20 9 11 988.6 - -
22/05:00am -0.3 -5.9 -2.5 85 - NE 17 22 9 12 988.7 988.9 -
22/04:30am -0.2 -6.3 -2.1 87 - NNE 20 28 11 15 988.9 - -
22/04:00am -0.1 -5.6 -2.2 86 - NNE 17 20 9 11 988.9 - -
22/03:30am -0.3 -5.8 -2.2 87 - NNE 17 19 9 10 989.0 - -
22/03:00am 0.1 -5.0 -2.3 84 - NNE 15 19 8 10 989.0 - -
22/02:30am 0.6 -4.9 -2.4 80 - NNE 17 20 9 11 988.9 - -
22/02:00am 1.2 -4.3 -2.0 79 - NNE 17 22 9 12 988.9 989.1 -
22/01:30am 1.2 -3.6 -2.4 77 - NNE 13 17 7 9 988.9 - -
22/01:00am 1.1 -3.6 -1.8 81 - N 13 17 7 9 989.3 - -
22/12:30am 1.5 -4.0 -1.9 78 - NNE 17 20 9 11 989.2 - -
22/12:00am 1.6 -3.9 -2.0 77 - N 17 20 9 11 989.3 - -
 
Date/Time
EDT
Temp
°C
App
Temp
°C
Dew
Point
Rel
Hum
%
Delta-T
°C
Wind Press
QNH
hPa
Press
MSL
hPa
Rain
since 9 am
mm
Dir
 
Spd
km/h
Gust
km/h
Spd
kts
Gust
kts
21/11:30pm 1.3 -3.4 -2.1 78 - N 13 17 7 9 989.4 - -
21/11:00pm 1.1 -2.9 -2.1 79 - N 9 13 5 7 989.5 989.7 -
21/10:30pm 1.1 -3.3 -2.5 77 - N 11 15 6 8 989.4 - -
21/10:00pm 1.2 -4.0 -2.4 77 - N 15 17 8 9 989.3 - -
21/09:30pm 1.8 -3.4 -2.7 72 - N 15 19 8 10 989.2 - -
21/09:00pm 1.7 -3.5 -2.6 73 - N 15 17 8 9 989.3 - -
21/08:30pm 1.7 -3.1 -2.4 74 - N 13 15 7 8 989.3 - -
21/08:00pm 1.7 -3.5 -2.8 72 - N 15 17 8 9 989.3 989.5 -
21/07:30pm 2.5 -2.3 -2.6 69 - N 13 17 7 9 989.0 - -
21/07:00pm 2.3 -2.9 -3.0 68 - N 15 19 8 10 988.9 - -
21/06:30pm 2.7 -2.6 -3.6 63 - NNE 15 19 8 10 988.8 - -
21/06:00pm 2.8 -3.3 -3.5 63 - NNE 19 22 10 12 988.7 - -
21/05:30pm 2.4 -3.2 -2.9 68 - NNE 17 24 9 13 988.7 - -
21/05:00pm 2.7 -3.4 -3.6 63 - NNE 19 24 10 13 988.7 988.9 -
21/04:30pm 2.9 -3.5 -5.0 56 - NNE 20 24 11 13 988.5 - -
21/04:00pm 3.4 -3.0 -5.0 54 - NNE 20 26 11 14 988.4 - -
21/03:30pm 3.5 -3.0 -5.7 51 - NE 20 30 11 16 988.2 - -
21/03:00pm 3.5 -2.8 -5.4 52 - NE 19 24 10 13 988.1 - -
21/02:30pm 2.5 -2.8 -4.0 62 - NNE 15 20 8 11 987.9 - -
21/02:00pm 3.0 -3.5 -5.9 52 - NE 20 26 11 14 987.9 988.1 -
21/01:30pm 2.6 -3.6 -4.8 58 - NNE 19 20 10 11 987.7 - -
21/01:00pm 3.3 -2.6 -5.8 51 - NE 17 24 9 13 987.6 - -
21/12:30pm 3.4 -3.0 -5.3 53 - NE 20 26 11 14 987.4 - -
21/12:00pm 3.0 -3.5 -5.9 52 - NE 20 26 11 14 987.3 - -
21/11:30am 2.6 -3.3 -6.0 53 - NE 17 20 9 11 987.1 - -
21/11:00am 2.6 -2.9 -5.5 55 - NE 15 20 8 11 987.0 987.2 -
21/10:30am 2.4 -3.5 -5.2 57 - NE 17 20 9 11 986.9 - -
21/10:00am 2.4 -3.5 -5.7 55 - ENE 17 22 9 12 986.6 - -
21/09:30am 2.1 -3.8 -5.3 58 - NE 17 22 9 12 986.5 - -
21/09:00am 1.8 -4.0 -4.9 61 - NE 17 20 9 11 986.2 - -
21/08:30am 1.6 -4.6 -4.7 63 - NNE 19 22 10 12 985.9 - -
21/08:00am 2.0 -5.2 -5.4 58 - NE 24 30 13 16 985.6 985.8 -
21/07:30am 1.9 -5.7 -5.2 59 - NE 26 39 14 21 985.3 - -
21/07:00am 2.0 -5.6 -5.2 59 - NE 26 35 14 19 985.1 - -
21/06:30am 1.8 -4.0 -4.5 63 - NE 17 22 9 12 984.9 - -
21/06:00am 2.4 -4.8 -5.5 56 - NE 24 43 13 23 984.4 - -
21/05:30am 2.6 -3.8 -4.8 58 - NE 20 24 11 13 984.2 - -
21/05:00am 1.9 -3.1 -4.2 64 - N 13 22 7 12 984.0 984.1 -
21/04:30am 1.5 -1.2 -2.8 73 - NW 2 9 1 5 984.0 - -
21/04:00am 1.8 -2.3 -3.3 69 - SSE 9 13 5 7 983.7 - -
21/03:30am 1.8 -3.4 -2.5 73 - S 15 19 8 10 983.1 - -
21/03:00am 2.2 -2.5 -1.8 75 - SSW 13 20 7 11 982.7 - -
21/02:30am 1.0 -2.6 -2.4 78 - SW 7 9 4 5 982.7 - -
21/02:00am 2.1 -1.4 -2.6 71 - WNW 6 7 3 4 982.7 982.8 -
21/01:30am 1.0 -3.0 -2.1 80 - N 9 13 5 7 982.8 - -
21/01:00am 1.0 -4.5 -2.1 80 - N 17 19 9 10 982.9 - -
21/12:30am 2.0 -3.6 -2.5 72 - NNE 17 22 9 12 982.7 - -
21/12:00am 2.8 -4.5 -2.9 66 - N 26 33 14 18 982.5 - -
 
Date/Time
EDT
Temp
°C
App
Temp
°C
Dew
Point
Rel
Hum
%
Delta-T
°C
Wind Press
QNH
hPa
Press
MSL
hPa
Rain
since 9 am
mm
Dir
 
Spd
km/h
Gust
km/h
Spd
kts
Gust
kts
20/11:45pm 2.7 -7.1 -3.0 66 - N 39 46 21 25 982.2 - -
20/11:34pm 5.2 -5.4 -3.8 52 - NE 43 59 23 32 981.9 - -
20/11:32pm 5.7 -3.9 -5.0 46 - ENE 37 57 20 31 981.6 - -
20/11:30pm 6.4 -2.9 -5.6 42 - ENE 35 44 19 24 981.6 - -
20/11:21pm 6.5 -1.7 -7.5 36 - ENE 28 35 15 19 981.6 - -
20/11:00pm 3.9 -0.7 -4.5 54 - NW 11 13 6 7 981.7 981.8 -
20/10:30pm 4.1 -0.5 -4.4 54 - NNW 11 13 6 7 981.5 - -
20/10:00pm 4.3 -1.8 -4.2 54 - NNW 19 22 10 12 981.2 - -
20/09:30pm 5.9 -1.3 -5.4 44 - N 24 30 13 16 981.0 - -
20/09:00pm 5.7 -2.3 -5.3 45 - NNE 28 35 15 19 981.2 - -
20/08:30pm 5.4 -3.5 -6.8 41 - NNE 32 41 17 22 981.3 - -
20/08:04pm 6.9 -3.5 -8.6 32 - NE 39 57 21 31 981.2 - -
20/08:00pm 7.6 -3.1 -8.4 31 - NE 41 57 22 31 981.1 981.2 -
20/07:30pm 7.2 -4.2 -9.2 30 - NE 44 59 24 32 981.2 - -
20/07:04pm 7.4 -3.8 -9.9 28 - ENE 43 61 23 33 981.2 - -

Other Formats:

Comma delimited format used in spreadsheet applications
http://www.bom.gov.au/fwo/IDT60803/IDT60803.89571.axf

JavaScript Object Notation format (JSON) in row-major order
http://www.bom.gov.au/fwo/IDT60803/IDT60803.89571.json